Hovedside
METAR-TAF:

METAR-TAF

Lufthavner :

Åbo lufthavn

Åbo, Finland

breddegrad: 60-31N, lengdegrad: 022-16E, høyde over havet: 49 m

Gjeldene værobservasjon

Denne rapporten ble laget for 22 minutter siden, klokken 15:20 UTC
Vind 11 kt fra Vest-nordvest
Temperatur 17°C
Luftfuktighet 25%
Trykk 1034 hPa
Sikt 10 km eller mer
ingen skyer under 1500 m og ingen bygeskyer

METAR: EFTU 181520Z AUTO 29011KT CAVOK 17/M03 Q1034

Tid: 18:42 (15:42 UTC)

Varsel

Denne rapporten ble laget for 1 time og 20 minutter siden, klokken 14:22 UTC
Varsel gyldig fra 18. klokken 15 UTC til 19. klokken 15 UTC
Vind 5 kt fra Vest
Sikt 10 km eller mer
ingen skyer under 1500 m og ingen bygeskyer

TAF: EFTU 181422Z 1815/1915 27005KT CAVOK

Værobservasjoner og værvarsel for over 4000 flyplasser (METAR- og TAF-rapporter).

Tilgjengelige stasjoner er representert av de røde og gule prikkene på kartet.

Hold musepekeren over prikken for å se navnet på stasjonen.

Klikk så for å se værobservasjoner og -varsler.

For å forandre kartet kan du klikke på den grønne knappen med svart kryss for å zoome inn, på den grønne knappen med strek for å zoome ut, eller på de grønne pilene for å se tilstøtende kart.


METAR-TAF: